sensor_id;sensor_type;location;lat;lon;timestamp;pressure;altitude;pressure_sealevel;temperature;humidity
68489;BME280;55481;48.764;8.936;2023-06-10T00:03:27;96660;;;15.6;51
68489;BME280;55481;48.764;8.936;2023-06-10T00:08:34;96660;;;15.3;51.5
68489;BME280;55481;48.764;8.936;2023-06-10T00:11:04;96660;;;15.7;51
68489;BME280;55481;48.764;8.936;2023-06-10T00:15:58;96660;;;15.4;51.5
68489;BME280;55481;48.764;8.936;2023-06-10T00:18:29;96660;;;15.4;51.5
68489;BME280;55481;48.764;8.936;2023-06-10T00:21:00;96660;;;15.3;51.5
68489;BME280;55481;48.764;8.936;2023-06-10T00:23:32;96670;;;15.3;51.5
68489;BME280;55481;48.764;8.936;2023-06-10T00:26:08;96670;;;15.4;51.5
68489;BME280;55481;48.764;8.936;2023-06-10T00:31:17;96660;;;15.4;51.5
68489;BME280;55481;48.764;8.936;2023-06-10T00:33:41;96670;;;15.3;51.5
68489;BME280;55481;48.764;8.936;2023-06-10T00:36:11;96660;;;15.2;52
68489;BME280;55481;48.764;8.936;2023-06-10T00:38:41;96670;;;15;52.5
68489;BME280;55481;48.764;8.936;2023-06-10T00:41:11;96660;;;15.1;52
68489;BME280;55481;48.764;8.936;2023-06-10T00:43:42;96670;;;15.2;52
68489;BME280;55481;48.764;8.936;2023-06-10T00:53:31;96670;;;15.1;52
68489;BME280;55481;48.764;8.936;2023-06-10T00:56:01;96670;;;15.1;52
68489;BME280;55481;48.764;8.936;2023-06-10T00:58:32;96670;;;15.3;51.5
68489;BME280;55481;48.764;8.936;2023-06-10T01:01:03;96670;;;15.1;52
68489;BME280;55481;48.764;8.936;2023-06-10T01:03:40;96670;;;14.9;52.5
68489;BME280;55481;48.764;8.936;2023-06-10T01:08:46;96660;;;14.9;52.5
68489;BME280;55481;48.764;8.936;2023-06-10T01:11:16;96660;;;15;52
68489;BME280;55481;48.764;8.936;2023-06-10T01:16:21;96660;;;14.8;53
68489;BME280;55481;48.764;8.936;2023-06-10T01:18:51;96660;;;14.7;53
68489;BME280;55481;48.764;8.936;2023-06-10T01:21:27;96660;;;14.6;53
68489;BME280;55481;48.764;8.936;2023-06-10T01:23:58;96660;;;14.5;53.5
68489;BME280;55481;48.764;8.936;2023-06-10T01:28:54;96670;;;14.4;53.5
68489;BME280;55481;48.764;8.936;2023-06-10T01:31:18;96660;;;14.4;53.5
68489;BME280;55481;48.764;8.936;2023-06-10T01:33:49;96660;;;14.4;53.5
68489;BME280;55481;48.764;8.936;2023-06-10T01:36:18;96660;;;14.4;53.5
68489;BME280;55481;48.764;8.936;2023-06-10T01:38:49;96660;;;14.5;53
68489;BME280;55481;48.764;8.936;2023-06-10T01:41:21;96660;;;14.5;53
68489;BME280;55481;48.764;8.936;2023-06-10T01:43:50;96660;;;14.4;53.5
68489;BME280;55481;48.764;8.936;2023-06-10T01:46:21;96660;;;14.3;53.5
68489;BME280;55481;48.764;8.936;2023-06-10T01:48:59;96670;;;14.4;53.5
68489;BME280;55481;48.764;8.936;2023-06-10T01:54:13;96670;;;14.3;53.5
68489;BME280;55481;48.764;8.936;2023-06-10T01:56:30;96670;;;14.3;53.5
68489;BME280;55481;48.764;8.936;2023-06-10T01:59:01;96680;;;14.2;54
68489;BME280;55481;48.764;8.936;2023-06-10T02:01:32;96670;;;14;54
68489;BME280;55481;48.764;8.936;2023-06-10T02:06:25;96680;;;14.2;54
68489;BME280;55481;48.764;8.936;2023-06-10T02:08:56;96680;;;13.9;54.5
68489;BME280;55481;48.764;8.936;2023-06-10T02:11:27;96680;;;13.8;54.5
68489;BME280;55481;48.764;8.936;2023-06-10T02:16:22;96680;;;13.7;54.5
68489;BME280;55481;48.764;8.936;2023-06-10T02:18:52;96680;;;13.8;54.5
68489;BME280;55481;48.764;8.936;2023-06-10T02:21:23;96680;;;13.9;54
68489;BME280;55481;48.764;8.936;2023-06-10T02:23:55;96680;;;13.9;54
68489;BME280;55481;48.764;8.936;2023-06-10T02:26:25;96690;;;13.8;54.5
68489;BME280;55481;48.764;8.936;2023-06-10T02:28:55;96690;;;13.8;54.5
68489;BME280;55481;48.764;8.936;2023-06-10T02:31:27;96690;;;13.7;54.5
68489;BME280;55481;48.764;8.936;2023-06-10T02:33:57;96690;;;13.8;54.5
68489;BME280;55481;48.764;8.936;2023-06-10T02:36:34;96690;;;13.8;54.5
68489;BME280;55481;48.764;8.936;2023-06-10T02:39:06;96700;;;13.8;54.5
68489;BME280;55481;48.764;8.936;2023-06-10T02:41:43;96690;;;13.6;55
68489;BME280;55481;48.764;8.936;2023-06-10T02:44:14;96700;;;13.5;55
68489;BME280;55481;48.764;8.936;2023-06-10T02:46:39;96700;;;13.7;54.5
68489;BME280;55481;48.764;8.936;2023-06-10T02:51:34;96690;;;13.7;54.5
68489;BME280;55481;48.764;8.936;2023-06-10T02:54:05;96700;;;13.7;54.5
68489;BME280;55481;48.764;8.936;2023-06-10T02:56:35;96690;;;13.8;54.5
68489;BME280;55481;48.764;8.936;2023-06-10T02:59:06;96700;;;13.7;55
68489;BME280;55481;48.764;8.936;2023-06-10T03:01:37;96690;;;13.7;55
68489;BME280;55481;48.764;8.936;2023-06-10T03:04:08;96700;;;13.8;54.5
68489;BME280;55481;48.764;8.936;2023-06-10T03:14:17;96710;;;13.3;55.5
68489;BME280;55481;48.764;8.936;2023-06-10T03:19:19;96710;;;13.3;55.5
68489;BME280;55481;48.764;8.936;2023-06-10T03:22:07;96720;;;13.3;55.5
68489;BME280;55481;48.764;8.936;2023-06-10T03:26:57;96720;;;13.1;56
68489;BME280;55481;48.764;8.936;2023-06-10T03:29:27;96720;;;13.1;56
68489;BME280;55481;48.764;8.936;2023-06-10T03:31:52;96730;;;13.2;55.5
68489;BME280;55481;48.764;8.936;2023-06-10T03:34:23;96730;;;13.3;55.5
68489;BME280;55481;48.764;8.936;2023-06-10T03:37:00;96730;;;13.2;55.5
68489;BME280;55481;48.764;8.936;2023-06-10T03:44:33;96730;;;13.3;55.5
68489;BME280;55481;48.764;8.936;2023-06-10T03:47:04;96730;;;13.4;55.5
68489;BME280;55481;48.764;8.936;2023-06-10T03:51:57;96740;;;13.2;56
68489;BME280;55481;48.764;8.936;2023-06-10T03:54:29;96740;;;13.2;56
68489;BME280;55481;48.764;8.936;2023-06-10T03:57:00;96740;;;13.3;55.5
68489;BME280;55481;48.764;8.936;2023-06-10T03:59:30;96740;;;13.2;56
68489;BME280;55481;48.764;8.936;2023-06-10T04:02:01;96740;;;13.4;55.5
68489;BME280;55481;48.764;8.936;2023-06-10T04:04:39;96740;;;13.4;55.5
68489;BME280;55481;48.764;8.936;2023-06-10T04:12:24;96740;;;13.3;56
68489;BME280;55481;48.764;8.936;2023-06-10T04:14:41;96740;;;13.4;55.5
68489;BME280;55481;48.764;8.936;2023-06-10T04:17:11;96740;;;13.6;55
68489;BME280;55481;48.764;8.936;2023-06-10T04:19:36;96740;;;13.7;55
68489;BME280;55481;48.764;8.936;2023-06-10T04:22:07;96740;;;13.7;55
68489;BME280;55481;48.764;8.936;2023-06-10T04:24:37;96740;;;13.9;55
68489;BME280;55481;48.764;8.936;2023-06-10T04:27:08;96740;;;14;54.5
68489;BME280;55481;48.764;8.936;2023-06-10T04:34:34;96740;;;14.1;55
68489;BME280;55481;48.764;8.936;2023-06-10T04:37:04;96740;;;14.2;54.5
68489;BME280;55481;48.764;8.936;2023-06-10T04:39:35;96740;;;14.4;54.5
68489;BME280;55481;48.764;8.936;2023-06-10T04:42:06;96740;;;14.5;54
68489;BME280;55481;48.764;8.936;2023-06-10T04:44:44;96740;;;14.5;54.5
68489;BME280;55481;48.764;8.936;2023-06-10T04:47:15;96740;;;14.7;54
68489;BME280;55481;48.764;8.936;2023-06-10T04:49:46;96740;;;14.7;54
68489;BME280;55481;48.764;8.936;2023-06-10T04:52:17;96740;;;14.9;54
68489;BME280;55481;48.764;8.936;2023-06-10T04:54:47;96740;;;15;54
68489;BME280;55481;48.764;8.936;2023-06-10T04:57:18;96740;;;15;54
68489;BME280;55481;48.764;8.936;2023-06-10T04:59:50;96740;;;15;54
68489;BME280;55481;48.764;8.936;2023-06-10T05:02:27;96740;;;15.2;54
68489;BME280;55481;48.764;8.936;2023-06-10T05:07:23;96740;;;15.4;53.5
68489;BME280;55481;48.764;8.936;2023-06-10T05:09:59;96750;;;15.5;53.5
68489;BME280;55481;48.764;8.936;2023-06-10T05:12:24;96750;;;15.6;53.5
68489;BME280;55481;48.764;8.936;2023-06-10T05:20:03;96750;;;15.9;53
68489;BME280;55481;48.764;8.936;2023-06-10T05:22:33;96740;;;16;53
68489;BME280;55481;48.764;8.936;2023-06-10T05:25:03;96740;;;16.1;53
68489;BME280;55481;48.764;8.936;2023-06-10T05:27:26;96750;;;16.1;53
68489;BME280;55481;48.764;8.936;2023-06-10T05:32:35;96750;;;16.3;53
68489;BME280;55481;48.764;8.936;2023-06-10T05:37:50;96750;;;16.5;53
68489;BME280;55481;48.764;8.936;2023-06-10T05:40:07;96750;;;16.7;52.5
68489;BME280;55481;48.764;8.936;2023-06-10T05:42:38;96750;;;16.8;52.5
68489;BME280;55481;48.764;8.936;2023-06-10T05:45:15;96750;;;16.9;52.5
68489;BME280;55481;48.764;8.936;2023-06-10T05:50:03;96750;;;17.2;52
68489;BME280;55481;48.764;8.936;2023-06-10T05:52:34;96750;;;17.4;52
68489;BME280;55481;48.764;8.936;2023-06-10T05:55:11;96750;;;17.4;52
68489;BME280;55481;48.764;8.936;2023-06-10T06:02:43;96750;;;17.7;51.5
68489;BME280;55481;48.764;8.936;2023-06-10T06:05:14;96750;;;17.8;51.5
68489;BME280;55481;48.764;8.936;2023-06-10T06:07:43;96760;;;18;51.5
68489;BME280;55481;48.764;8.936;2023-06-10T06:12:39;96750;;;18.2;51
68489;BME280;55481;48.764;8.936;2023-06-10T06:15:09;96750;;;18.4;51
68489;BME280;55481;48.764;8.936;2023-06-10T06:17:40;96750;;;18.6;51
68489;BME280;55481;48.764;8.936;2023-06-10T06:20:18;96760;;;18.8;50.5
68489;BME280;55481;48.764;8.936;2023-06-10T06:25:12;96750;;;19;50.5
68489;BME280;55481;48.764;8.936;2023-06-10T06:27:44;96750;;;19.1;50.5
68489;BME280;55481;48.764;8.936;2023-06-10T06:30:14;96750;;;19.3;50
68489;BME280;55481;48.764;8.936;2023-06-10T06:32:45;96750;;;19.6;50
68489;BME280;55481;48.764;8.936;2023-06-10T06:35:17;96750;;;19.8;49.5
68489;BME280;55481;48.764;8.936;2023-06-10T06:37:47;96750;;;20;49.5
68489;BME280;55481;48.764;8.936;2023-06-10T06:55:22;96750;;;21.1;49
68489;BME280;55481;48.764;8.936;2023-06-10T06:57:53;96750;;;21.1;49
68489;BME280;55481;48.764;8.936;2023-06-10T07:00:24;96750;;;21.4;48.5
68489;BME280;55481;48.764;8.936;2023-06-10T07:05:19;96760;;;21.7;48.5
68489;BME280;55481;48.764;8.936;2023-06-10T07:07:49;96760;;;21.8;48.5
68489;BME280;55481;48.764;8.936;2023-06-10T07:10:21;96750;;;21.9;48
68489;BME280;55481;48.764;8.936;2023-06-10T07:20:24;96750;;;22.3;48
68489;BME280;55481;48.764;8.936;2023-06-10T07:22:54;96750;;;22.5;47.5
68489;BME280;55481;48.764;8.936;2023-06-10T07:25:25;96750;;;22.7;47.5
68489;BME280;55481;48.764;8.936;2023-06-10T07:28:03;96750;;;22.6;48
68489;BME280;55481;48.764;8.936;2023-06-10T07:30:33;96740;;;22.8;47.5
68489;BME280;55481;48.764;8.936;2023-06-10T07:35:28;96750;;;23.1;47.5
68489;BME280;55481;48.764;8.936;2023-06-10T07:38:00;96750;;;23.1;47.5
68489;BME280;55481;48.764;8.936;2023-06-10T07:40:30;96740;;;23.2;47.5
68489;BME280;55481;48.764;8.936;2023-06-10T07:48:03;96750;;;23.4;47.5
68489;BME280;55481;48.764;8.936;2023-06-10T07:50:41;96750;;;23.6;47
68489;BME280;55481;48.764;8.936;2023-06-10T07:53:04;96750;;;23.5;47.5
68489;BME280;55481;48.764;8.936;2023-06-10T07:55:42;96740;;;23.7;47
68489;BME280;55481;48.764;8.936;2023-06-10T07:58:13;96740;;;24.1;46.5
68489;BME280;55481;48.764;8.936;2023-06-10T08:00:44;96740;;;24.2;46.5
68489;BME280;55481;48.764;8.936;2023-06-10T08:03:16;96740;;;24.3;46.5
68489;BME280;55481;48.764;8.936;2023-06-10T08:05:42;96740;;;24.1;47
68489;BME280;55481;48.764;8.936;2023-06-10T08:08:09;96740;;;24;47
68489;BME280;55481;48.764;8.936;2023-06-10T08:15:42;96730;;;24.5;46.5
68489;BME280;55481;48.764;8.936;2023-06-10T08:20:43;96740;;;24.6;46.5
68489;BME280;55481;48.764;8.936;2023-06-10T08:25:52;96730;;;24.6;46.5
68489;BME280;55481;48.764;8.936;2023-06-10T08:28:22;96730;;;24.4;47
68489;BME280;55481;48.764;8.936;2023-06-10T08:33:17;96730;;;24.8;46.5
68489;BME280;55481;48.764;8.936;2023-06-10T08:35:47;96730;;;25;46
68489;BME280;55481;48.764;8.936;2023-06-10T08:38:17;96730;;;25.1;46
68489;BME280;55481;48.764;8.936;2023-06-10T08:40:48;96740;;;25.2;46
68489;BME280;55481;48.764;8.936;2023-06-10T08:45:50;96740;;;25.2;46
68489;BME280;55481;48.764;8.936;2023-06-10T08:50:59;96740;;;25.5;45.5
68489;BME280;55481;48.764;8.936;2023-06-10T08:53:29;96740;;;25.2;46
68489;BME280;55481;48.764;8.936;2023-06-10T08:56:00;96730;;;25.3;46
68489;BME280;55481;48.764;8.936;2023-06-10T09:00:54;96730;;;25.6;45.5
68489;BME280;55481;48.764;8.936;2023-06-10T09:03:25;96740;;;25.5;45.5
68489;BME280;55481;48.764;8.936;2023-06-10T09:05:55;96740;;;25.6;45.5
68489;BME280;55481;48.764;8.936;2023-06-10T09:08:26;96740;;;25.4;46
68489;BME280;55481;48.764;8.936;2023-06-10T09:15:58;96740;;;25.4;46
68489;BME280;55481;48.764;8.936;2023-06-10T09:23:37;96730;;;26;45
68489;BME280;55481;48.764;8.936;2023-06-10T09:26:08;96740;;;25.8;45.5
68489;BME280;55481;48.764;8.936;2023-06-10T09:28:39;96740;;;25.8;45.5
68489;BME280;55481;48.764;8.936;2023-06-10T09:31:13;96730;;;26;45
68489;BME280;55481;48.764;8.936;2023-06-10T09:33:41;96730;;;26.2;45
68489;BME280;55481;48.764;8.936;2023-06-10T09:38:35;96730;;;26.4;44.5
68489;BME280;55481;48.764;8.936;2023-06-10T09:41:07;96730;;;26.5;44.5
68489;BME280;55481;48.764;8.936;2023-06-10T09:48:41;96720;;;26.3;45
68489;BME280;55481;48.764;8.936;2023-06-10T09:51:10;96720;;;26.7;44.5
68489;BME280;55481;48.764;8.936;2023-06-10T09:53:40;96720;;;26.8;44
68489;BME280;55481;48.764;8.936;2023-06-10T09:56:18;96720;;;26.5;45
68489;BME280;55481;48.764;8.936;2023-06-10T09:58:49;96720;;;26.8;44.5
68489;BME280;55481;48.764;8.936;2023-06-10T10:01:19;96720;;;26.9;44
68489;BME280;55481;48.764;8.936;2023-06-10T10:03:50;96730;;;27.2;43.5
68489;BME280;55481;48.764;8.936;2023-06-10T10:06:25;96720;;;26.9;44.5
68489;BME280;55481;48.764;8.936;2023-06-10T10:08:52;96720;;;26.8;44.5
68489;BME280;55481;48.764;8.936;2023-06-10T10:16:31;96720;;;27;44
68489;BME280;55481;48.764;8.936;2023-06-10T10:18:54;96720;;;27.4;43.5
68489;BME280;55481;48.764;8.936;2023-06-10T10:21:22;96710;;;26.8;44.5
68489;BME280;55481;48.764;8.936;2023-06-10T10:24:23;96720;;;27;44.5
68489;BME280;55481;48.764;8.936;2023-06-10T10:26:22;96720;;;27.4;43.5
68489;BME280;55481;48.764;8.936;2023-06-10T10:31:29;96710;;;27.1;44
68489;BME280;55481;48.764;8.936;2023-06-10T10:34:01;96710;;;26.4;45.5
68489;BME280;55481;48.764;8.936;2023-06-10T10:36:31;96710;;;27;44.5
68489;BME280;55481;48.764;8.936;2023-06-10T10:39:08;96710;;;27.1;44
68489;BME280;55481;48.764;8.936;2023-06-10T10:41:39;96710;;;26.6;45
68489;BME280;55481;48.764;8.936;2023-06-10T10:44:09;96710;;;26.5;45.5
68489;BME280;55481;48.764;8.936;2023-06-10T10:49:03;96710;;;26.4;45
68489;BME280;55481;48.764;8.936;2023-06-10T10:52:12;96710;;;26.1;46
68489;BME280;55481;48.764;8.936;2023-06-10T10:54:13;96710;;;26.1;46
68489;BME280;55481;48.764;8.936;2023-06-10T10:56:36;96710;;;26.9;44.5
68489;BME280;55481;48.764;8.936;2023-06-10T10:59:07;96700;;;27.9;42.5
68489;BME280;55481;48.764;8.936;2023-06-10T11:01:40;96690;;;28.6;41.5
68489;BME280;55481;48.764;8.936;2023-06-10T11:04:09;96690;;;28.4;42
68489;BME280;55481;48.764;8.936;2023-06-10T11:06:40;96690;;;28.7;42
68489;BME280;55481;48.764;8.936;2023-06-10T11:09:25;96690;;;28.9;41.5
68489;BME280;55481;48.764;8.936;2023-06-10T11:11:49;96690;;;28.3;42.5
68489;BME280;55481;48.764;8.936;2023-06-10T11:14:26;96700;;;27;45
68489;BME280;55481;48.764;8.936;2023-06-10T11:16:44;96700;;;26.5;45.5
68489;BME280;55481;48.764;8.936;2023-06-10T11:19:46;96700;;;26.4;45.5
68489;BME280;55481;48.764;8.936;2023-06-10T11:22:02;96690;;;26.3;45.5
68489;BME280;55481;48.764;8.936;2023-06-10T11:26:48;96690;;;27.2;44
68489;BME280;55481;48.764;8.936;2023-06-10T11:29:20;96690;;;28;42.5
68489;BME280;55481;48.764;8.936;2023-06-10T11:31:56;96690;;;26.6;45
68489;BME280;55481;48.764;8.936;2023-06-10T11:39:29;96670;;;29.5;40.5
68489;BME280;55481;48.764;8.936;2023-06-10T11:42:05;96670;;;29.9;40
68489;BME280;55481;48.764;8.936;2023-06-10T11:46:53;96670;;;29.2;41.5
68489;BME280;55481;48.764;8.936;2023-06-10T11:49:26;96680;;;28;43.5
68489;BME280;55481;48.764;8.936;2023-06-10T11:51:55;96680;;;27.1;45
68489;BME280;55481;48.764;8.936;2023-06-10T11:54:19;96680;;;26.8;45.5
68489;BME280;55481;48.764;8.936;2023-06-10T12:01:52;96670;;;32.5;36.5
68489;BME280;55481;48.764;8.936;2023-06-10T12:04:22;96660;;;33.2;35.5
68489;BME280;55481;48.764;8.936;2023-06-10T12:06:53;96670;;;32;37.5
68489;BME280;55481;48.764;8.936;2023-06-10T12:09:25;96680;;;29.1;42.5
68489;BME280;55481;48.764;8.936;2023-06-10T12:11:58;96680;;;27.7;45
68489;BME280;55481;48.764;8.936;2023-06-10T12:14:56;96660;;;29.8;41.5
68489;BME280;55481;48.764;8.936;2023-06-10T12:17:09;96660;;;32;38
68489;BME280;55481;48.764;8.936;2023-06-10T12:19:49;96660;;;32.9;36.5
68489;BME280;55481;48.764;8.936;2023-06-10T12:22:04;96660;;;33.7;35.5
68489;BME280;55481;48.764;8.936;2023-06-10T12:24:43;96660;;;33.8;35.5
68489;BME280;55481;48.764;8.936;2023-06-10T12:27:05;96660;;;33.6;36
68489;BME280;55481;48.764;8.936;2023-06-10T12:29:50;96660;;;33.3;37
68489;BME280;55481;48.764;8.936;2023-06-10T12:34:51;96670;;;29.7;42.5
68489;BME280;55481;48.764;8.936;2023-06-10T12:37:15;96670;;;30.5;41
68489;BME280;55481;48.764;8.936;2023-06-10T12:42:15;96650;;;32.9;37.5
68489;BME280;55481;48.764;8.936;2023-06-10T12:44:45;96660;;;34;35.5
68489;BME280;55481;48.764;8.936;2023-06-10T12:47:15;96650;;;34.6;35
68489;BME280;55481;48.764;8.936;2023-06-10T12:49:45;96650;;;33.8;36
68489;BME280;55481;48.764;8.936;2023-06-10T12:52:09;96650;;;33.4;37
68489;BME280;55481;48.764;8.936;2023-06-10T12:54:47;96660;;;32.3;38
68489;BME280;55481;48.764;8.936;2023-06-10T12:57:18;96660;;;30.3;41.5
68489;BME280;55481;48.764;8.936;2023-06-10T12:59:43;96660;;;29.7;42.5
68489;BME280;55481;48.764;8.936;2023-06-10T13:04:44;96650;;;33.1;36.5
68489;BME280;55481;48.764;8.936;2023-06-10T13:07:15;96650;;;33.7;36
68489;BME280;55481;48.764;8.936;2023-06-10T13:09:46;96650;;;33.5;36
68489;BME280;55481;48.764;8.936;2023-06-10T13:16:44;96650;;;33.4;36.5
68489;BME280;55481;48.764;8.936;2023-06-10T13:21:16;96650;;;29.9;42
68489;BME280;55481;48.764;8.936;2023-06-10T13:23:46;96650;;;29.2;42.5
68489;BME280;55481;48.764;8.936;2023-06-10T13:26:17;96650;;;28.9;42.5
68489;BME280;55481;48.764;8.936;2023-06-10T13:28:48;96640;;;28.6;42.5
68489;BME280;55481;48.764;8.936;2023-06-10T13:31:19;96650;;;28.5;42.5
68489;BME280;55481;48.764;8.936;2023-06-10T13:33:49;96650;;;28.4;42.5
68489;BME280;55481;48.764;8.936;2023-06-10T13:36:20;96650;;;29;41
68489;BME280;55481;48.764;8.936;2023-06-10T13:38:51;96640;;;28.7;41.5
68489;BME280;55481;48.764;8.936;2023-06-10T13:46:23;96640;;;27.8;42
68489;BME280;55481;48.764;8.936;2023-06-10T13:51:31;96650;;;27.7;42
68489;BME280;55481;48.764;8.936;2023-06-10T13:54:02;96640;;;28;42
68489;BME280;55481;48.764;8.936;2023-06-10T13:56:34;96620;;;31.1;37
68489;BME280;55481;48.764;8.936;2023-06-10T13:58:57;96610;;;33.6;34
68489;BME280;55481;48.764;8.936;2023-06-10T14:01:28;96610;;;35.2;32
68489;BME280;55481;48.764;8.936;2023-06-10T14:03:58;96610;;;35.4;32
68489;BME280;55481;48.764;8.936;2023-06-10T14:14:02;96610;;;34.5;34
68489;BME280;55481;48.764;8.936;2023-06-10T14:16:32;96610;;;35.2;33
68489;BME280;55481;48.764;8.936;2023-06-10T14:19:03;96610;;;35.2;33
68489;BME280;55481;48.764;8.936;2023-06-10T14:21:41;96610;;;35.1;33.5
68489;BME280;55481;48.764;8.936;2023-06-10T14:24:12;96610;;;35.6;33
68489;BME280;55481;48.764;8.936;2023-06-10T14:29:06;96600;;;35.9;32.5
68489;BME280;55481;48.764;8.936;2023-06-10T14:31:37;96600;;;35.5;33
68489;BME280;55481;48.764;8.936;2023-06-10T14:34:08;96600;;;35.4;33
68489;BME280;55481;48.764;8.936;2023-06-10T14:41:40;96600;;;35.1;33.5
68489;BME280;55481;48.764;8.936;2023-06-10T14:44:12;96600;;;35.2;33
68489;BME280;55481;48.764;8.936;2023-06-10T14:46:41;96590;;;35.1;33
68489;BME280;55481;48.764;8.936;2023-06-10T14:49:13;96590;;;35.5;32.5
68489;BME280;55481;48.764;8.936;2023-06-10T14:51:50;96590;;;35.3;32.5
68489;BME280;55481;48.764;8.936;2023-06-10T14:54:21;96590;;;36.1;31.5
68489;BME280;55481;48.764;8.936;2023-06-10T14:56:51;96580;;;35.8;32
68489;BME280;55481;48.764;8.936;2023-06-10T15:06:48;96580;;;35.3;32
68489;BME280;55481;48.764;8.936;2023-06-10T15:09:19;96580;;;35.6;31.5
68489;BME280;55481;48.764;8.936;2023-06-10T15:11:49;96590;;;33.6;34
68489;BME280;55481;48.764;8.936;2023-06-10T15:14:25;96580;;;34.4;33.5
68489;BME280;55481;48.764;8.936;2023-06-10T15:16:51;96580;;;34.9;32.5
68489;BME280;55481;48.764;8.936;2023-06-10T15:19:22;96580;;;33.7;33.5
68489;BME280;55481;48.764;8.936;2023-06-10T15:22:00;96580;;;32.7;35
68489;BME280;55481;48.764;8.936;2023-06-10T15:24:31;96590;;;31.5;36.5
68489;BME280;55481;48.764;8.936;2023-06-10T15:27:01;96590;;;30;38.5
68489;BME280;55481;48.764;8.936;2023-06-10T15:36:58;96590;;;29.1;38
68489;BME280;55481;48.764;8.936;2023-06-10T15:39:28;96590;;;29;38
68489;BME280;55481;48.764;8.936;2023-06-10T15:42:00;96590;;;28.9;38
68489;BME280;55481;48.764;8.936;2023-06-10T15:44:30;96580;;;28.8;38
68489;BME280;55481;48.764;8.936;2023-06-10T15:47:06;96580;;;28.8;37.5
68489;BME280;55481;48.764;8.936;2023-06-10T15:49:33;96580;;;28.7;37.5
68489;BME280;55481;48.764;8.936;2023-06-10T15:52:09;96570;;;28.8;37.5
68489;BME280;55481;48.764;8.936;2023-06-10T15:54:40;96570;;;28.5;37.5
68489;BME280;55481;48.764;8.936;2023-06-10T15:57:11;96570;;;28.7;37.5
68489;BME280;55481;48.764;8.936;2023-06-10T15:59:50;96580;;;28.9;37
68489;BME280;55481;48.764;8.936;2023-06-10T16:04:37;96570;;;28.8;37
68489;BME280;55481;48.764;8.936;2023-06-10T16:07:07;96580;;;28.5;37.5
68489;BME280;55481;48.764;8.936;2023-06-10T16:09:38;96580;;;28.3;37.5
68489;BME280;55481;48.764;8.936;2023-06-10T16:12:10;96580;;;28.3;37.5
68489;BME280;55481;48.764;8.936;2023-06-10T16:14:39;96580;;;28.2;37.5
68489;BME280;55481;48.764;8.936;2023-06-10T16:17:10;96570;;;28;38
68489;BME280;55481;48.764;8.936;2023-06-10T16:19:41;96580;;;27.9;38
68489;BME280;55481;48.764;8.936;2023-06-10T16:22:13;96570;;;27.7;38
68489;BME280;55481;48.764;8.936;2023-06-10T16:29:44;96570;;;27.2;38.5
68489;BME280;55481;48.764;8.936;2023-06-10T16:34:53;96570;;;27.3;38.5
68489;BME280;55481;48.764;8.936;2023-06-10T16:37:23;96570;;;27.4;38
68489;BME280;55481;48.764;8.936;2023-06-10T16:39:53;96580;;;27.3;38
68489;BME280;55481;48.764;8.936;2023-06-10T16:42:25;96570;;;27.3;38
68489;BME280;55481;48.764;8.936;2023-06-10T16:47:19;96570;;;27.2;38
68489;BME280;55481;48.764;8.936;2023-06-10T16:49:50;96570;;;27.1;38
68489;BME280;55481;48.764;8.936;2023-06-10T16:57:23;96580;;;27;38.5
68489;BME280;55481;48.764;8.936;2023-06-10T16:59:54;96580;;;26.9;38.5
68489;BME280;55481;48.764;8.936;2023-06-10T17:02:38;96580;;;26.9;38.5
68489;BME280;55481;48.764;8.936;2023-06-10T17:05:07;96580;;;26.8;38.5
68489;BME280;55481;48.764;8.936;2023-06-10T17:17:34;96600;;;26.6;38.5
68489;BME280;55481;48.764;8.936;2023-06-10T17:20:01;96600;;;26.6;38.5
68489;BME280;55481;48.764;8.936;2023-06-10T17:22:31;96610;;;26.6;38.5
68489;BME280;55481;48.764;8.936;2023-06-10T17:25:02;96610;;;26.5;38.5
68489;BME280;55481;48.764;8.936;2023-06-10T17:30:09;96610;;;26.5;38.5
68489;BME280;55481;48.764;8.936;2023-06-10T17:32:42;96610;;;26.5;38.5
68489;BME280;55481;48.764;8.936;2023-06-10T17:35:12;96610;;;26.5;38.5
68489;BME280;55481;48.764;8.936;2023-06-10T17:37:42;96610;;;26.4;38.5
68489;BME280;55481;48.764;8.936;2023-06-10T17:40:19;96610;;;26.2;39
68489;BME280;55481;48.764;8.936;2023-06-10T17:42:50;96610;;;26.1;39
68489;BME280;55481;48.764;8.936;2023-06-10T17:45:26;96610;;;25.9;39
68489;BME280;55481;48.764;8.936;2023-06-10T17:50:14;96620;;;25.7;39.5
68489;BME280;55481;48.764;8.936;2023-06-10T17:52:45;96620;;;25.6;39.5
68489;BME280;55481;48.764;8.936;2023-06-10T17:55:16;96620;;;25.6;39.5
68489;BME280;55481;48.764;8.936;2023-06-10T18:00:11;96620;;;25.8;39
68489;BME280;55481;48.764;8.936;2023-06-10T18:02:41;96620;;;25.8;39
68489;BME280;55481;48.764;8.936;2023-06-10T18:05:12;96620;;;25.7;39
68489;BME280;55481;48.764;8.936;2023-06-10T18:10:14;96620;;;25.8;39
68489;BME280;55481;48.764;8.936;2023-06-10T18:17:46;96630;;;25.9;39
68489;BME280;55481;48.764;8.936;2023-06-10T18:20:17;96630;;;26;38.5
68489;BME280;55481;48.764;8.936;2023-06-10T18:23:14;96630;;;26.1;38.5
68489;BME280;55481;48.764;8.936;2023-06-10T18:25:31;96630;;;26.1;38.5
68489;BME280;55481;48.764;8.936;2023-06-10T18:30:31;96630;;;25.9;39
68489;BME280;55481;48.764;8.936;2023-06-10T18:38:15;96650;;;25.9;39
68489;BME280;55481;48.764;8.936;2023-06-10T18:40:45;96650;;;25.8;39
68489;BME280;55481;48.764;8.936;2023-06-10T18:45:26;96660;;;25.5;39.5
68489;BME280;55481;48.764;8.936;2023-06-10T18:47:57;96660;;;25.4;39.5
68489;BME280;55481;48.764;8.936;2023-06-10T18:50:27;96670;;;25.3;40
68489;BME280;55481;48.764;8.936;2023-06-10T18:52:51;96670;;;25.1;40
68489;BME280;55481;48.764;8.936;2023-06-10T18:55:23;96670;;;25;40
68489;BME280;55481;48.764;8.936;2023-06-10T19:02:54;96690;;;24.4;41
68489;BME280;55481;48.764;8.936;2023-06-10T19:05:25;96690;;;24.2;41
68489;BME280;55481;48.764;8.936;2023-06-10T19:07:56;96700;;;23.9;41.5
68489;BME280;55481;48.764;8.936;2023-06-10T19:10:27;96700;;;23.8;41.5
68489;BME280;55481;48.764;8.936;2023-06-10T19:12:57;96700;;;23.6;42
68489;BME280;55481;48.764;8.936;2023-06-10T19:18:05;96720;;;23.4;42
68489;BME280;55481;48.764;8.936;2023-06-10T19:20:37;96710;;;23.4;42
68489;BME280;55481;48.764;8.936;2023-06-10T19:33:04;96720;;;23.1;42
68489;BME280;55481;48.764;8.936;2023-06-10T19:35:34;96720;;;22.9;42.5